Time,TemperatureF,DewpointF,PressureIn,WindDirection,WindDirectionDegrees,WindSpeedMPH,WindSpeedGustMPH,Humidity,HourlyPrecipIn,Conditions,Clouds,dailyrainin,SoftwareType,DateUTC
2013-05-20 00:05:00,77.7,71.0,30.13,East,100,4.0,9.0,81,0.00,,,0.00,weatherlink.com 1.10,2013-05-20 04:05:00,
2013-05-20 00:20:00,77.8,71.0,30.12,East,101,4.0,9.0,80,0.00,,,0.00,weatherlink.com 1.10,2013-05-20 04:20:00,
2013-05-20 00:35:00,77.7,71.0,30.11,East,89,5.0,7.0,80,0.00,,,0.00,weatherlink.com 1.10,2013-05-20 04:35:00,
2013-05-20 00:50:00,77.9,71.0,30.11,ESE,111,5.0,10.0,80,0.00,,,0.00,weatherlink.com 1.10,2013-05-20 04:50:00,
2013-05-20 01:05:00,77.8,72.0,30.11,ESE,108,4.0,8.0,81,0.00,,,0.00,weatherlink.com 1.10,2013-05-20 05:05:00,
2013-05-20 01:20:00,77.8,72.0,30.10,East,95,10.0,11.0,81,0.00,,,0.00,weatherlink.com 1.10,2013-05-20 05:20:00,
2013-05-20 01:35:00,77.8,72.0,30.10,East,82,7.0,9.0,81,0.00,,,0.00,weatherlink.com 1.10,2013-05-20 05:35:00,
2013-05-20 01:50:00,77.7,72.0,30.09,East,97,6.0,11.0,82,0.00,,,0.00,weatherlink.com 1.10,2013-05-20 05:50:00,
2013-05-20 02:05:00,77.7,72.0,30.09,East,79,9.0,12.0,82,0.00,,,0.00,weatherlink.com 1.10,2013-05-20 06:05:00,
2013-05-20 02:20:00,77.7,72.0,30.08,East,90,6.0,9.0,82,0.00,,,0.00,weatherlink.com 1.10,2013-05-20 06:20:00,
2013-05-20 02:35:00,77.7,72.0,30.08,ESE,105,6.0,10.0,82,0.00,,,0.00,weatherlink.com 1.10,2013-05-20 06:35:00,
2013-05-20 02:50:00,77.6,72.0,30.08,SE,125,3.0,8.0,82,0.00,,,0.00,weatherlink.com 1.10,2013-05-20 06:50:00,
2013-05-20 03:05:00,77.5,72.0,30.07,ESE,115,7.0,10.0,83,0.00,,,0.00,weatherlink.com 1.10,2013-05-20 07:05:00,
2013-05-20 03:21:00,77.5,72.0,30.07,ESE,113,5.0,10.0,83,0.00,,,0.00,weatherlink.com 1.10,2013-05-20 07:21:00,
2013-05-20 03:36:00,77.7,73.0,30.07,SE,135,3.0,7.0,84,0.00,,,0.00,weatherlink.com 1.10,2013-05-20 07:36:00,
2013-05-20 03:51:00,77.7,72.0,30.07,SE,126,2.0,6.0,82,0.00,,,0.00,weatherlink.com 1.10,2013-05-20 07:51:00,
2013-05-20 04:06:00,77.7,72.0,30.06,ESE,112,6.0,8.0,83,0.00,,,0.00,weatherlink.com 1.10,2013-05-20 08:06:00,
2013-05-20 04:21:00,77.6,72.0,30.06,ESE,108,3.0,6.0,83,0.00,,,0.00,weatherlink.com 1.10,2013-05-20 08:21:00,
2013-05-20 04:36:00,77.5,72.0,30.06,ESE,110,2.0,5.0,84,0.00,,,0.00,weatherlink.com 1.10,2013-05-20 08:36:00,
2013-05-20 04:51:00,77.5,72.0,30.06,SE,134,2.0,4.0,84,0.00,,,0.00,weatherlink.com 1.10,2013-05-20 08:51:00,
2013-05-20 05:06:00,77.5,72.0,30.06,SSE,160,7.0,7.0,84,0.00,,,0.00,weatherlink.com 1.10,2013-05-20 09:06:00,
2013-05-20 05:21:00,77.6,73.0,30.07,ESE,115,5.0,6.0,84,0.00,,,0.00,weatherlink.com 1.10,2013-05-20 09:21:00,
2013-05-20 05:36:00,77.7,73.0,30.06,ESE,115,3.0,6.0,84,0.00,,,0.00,weatherlink.com 1.10,2013-05-20 09:36:00,
2013-05-20 05:51:00,77.5,73.0,30.06,East,82,4.0,5.0,85,0.00,,,0.00,weatherlink.com 1.10,2013-05-20 09:51:00,
2013-05-20 06:06:00,77.6,73.0,30.06,ESE,110,4.0,9.0,85,0.00,,,0.00,weatherlink.com 1.10,2013-05-20 10:06:00,
2013-05-20 06:21:00,77.7,73.0,30.06,ESE,112,5.0,7.0,84,0.00,,,0.00,weatherlink.com 1.10,2013-05-20 10:21:00,
2013-05-20 06:36:00,77.8,73.0,30.07,ESE,115,4.0,7.0,84,0.00,,,0.00,weatherlink.com 1.10,2013-05-20 10:36:00,
2013-05-20 06:51:00,78.0,73.0,30.07,ESE,116,7.0,8.0,85,0.00,,,0.00,weatherlink.com 1.10,2013-05-20 10:51:00,
2013-05-20 07:06:00,78.1,73.0,30.08,ESE,106,6.0,9.0,85,0.00,,,0.00,weatherlink.com 1.10,2013-05-20 11:06:00,
2013-05-20 07:21:00,78.4,73.0,30.09,East,100,4.0,6.0,84,0.00,,,0.00,weatherlink.com 1.10,2013-05-20 11:21:00,
2013-05-20 07:36:00,78.5,73.0,30.09,ESE,112,6.0,7.0,83,0.00,,,0.00,weatherlink.com 1.10,2013-05-20 11:36:00,
2013-05-20 07:51:00,79.0,74.0,30.10,ESE,119,6.0,8.0,83,0.00,,,0.00,weatherlink.com 1.10,2013-05-20 11:51:00,
2013-05-20 08:06:00,79.2,73.0,30.10,SSE,155,3.0,8.0,81,0.00,,,0.00,weatherlink.com 1.10,2013-05-20 12:06:00,
2013-05-20 08:21:00,79.5,73.0,30.10,SE,142,6.0,9.0,80,0.00,,,0.00,weatherlink.com 1.10,2013-05-20 12:21:00,
2013-05-20 08:36:00,79.6,73.0,30.11,SSE,155,7.0,8.0,81,0.00,,,0.00,weatherlink.com 1.10,2013-05-20 12:36:00,
2013-05-20 08:51:00,79.6,73.0,30.11,SSE,166,6.0,10.0,81,0.00,,,0.00,weatherlink.com 1.10,2013-05-20 12:51:00,
2013-05-20 09:06:00,79.6,73.0,30.11,ESE,116,4.0,8.0,81,0.00,,,0.00,weatherlink.com 1.10,2013-05-20 13:06:00,
2013-05-20 09:21:00,78.9,73.0,30.12,SE,130,9.0,13.0,82,0.00,,,0.00,weatherlink.com 1.10,2013-05-20 13:21:00,
2013-05-20 09:36:00,73.8,72.0,30.12,ENE,67,10.0,16.0,94,0.42,,,0.42,weatherlink.com 1.10,2013-05-20 13:36:00,
2013-05-20 09:51:00,73.0,72.0,30.12,NNE,20,0.0,15.0,97,0.88,,,0.88,weatherlink.com 1.10,2013-05-20 13:51:00,
2013-05-20 10:06:00,72.8,72.0,30.13,WNW,298,3.0,7.0,97,1.45,,,1.45,weatherlink.com 1.10,2013-05-20 14:06:00,
2013-05-20 10:21:00,71.8,71.0,30.13,WNW,290,5.0,11.0,97,1.92,,,1.92,weatherlink.com 1.10,2013-05-20 14:21:00,
2013-05-20 10:36:00,72.5,72.0,30.12,WSW,239,3.0,12.0,98,1.65,,,2.07,weatherlink.com 1.10,2013-05-20 14:36:00,
2013-05-20 10:51:00,73.4,73.0,30.12,WNW,284,0.0,3.0,98,1.17,,,2.09,weatherlink.com 1.10,2013-05-20 14:51:00,
2013-05-20 11:06:00,71.4,70.0,30.12,WSW,252,5.0,14.0,96,0.63,,,2.11,weatherlink.com 1.10,2013-05-20 15:06:00,
2013-05-20 11:21:00,71.2,71.0,30.12,NW,304,0.0,5.0,98,0.20,,,2.13,weatherlink.com 1.10,2013-05-20 15:21:00,
2013-05-20 11:36:00,71.0,70.0,30.15,WSW,256,6.0,14.0,98,0.31,,,2.38,weatherlink.com 1.10,2013-05-20 15:36:00,
2013-05-20 11:51:00,69.7,69.0,30.14,WNW,283,4.0,14.0,98,0.76,,,2.85,weatherlink.com 1.10,2013-05-20 15:51:00,
2013-05-20 12:06:00,69.9,69.0,30.15,East,94,2.0,4.0,98,0.97,,,3.08,weatherlink.com 1.10,2013-05-20 16:06:00,
2013-05-20 12:21:00,69.9,70.0,30.14,ENE,75,0.0,2.0,99,1.09,,,3.22,weatherlink.com 1.10,2013-05-20 16:21:00,
2013-05-20 12:36:00,70.1,70.0,30.14,SSE,148,2.0,3.0,99,0.83,,,3.23,weatherlink.com 1.10,2013-05-20 16:36:00,
2013-05-20 12:51:00,69.3,69.0,30.15,ESE,107,4.0,4.0,98,0.37,,,3.24,weatherlink.com 1.10,2013-05-20 16:51:00,
2013-05-20 13:06:00,69.7,69.0,30.13,SE,146,2.0,6.0,99,0.15,,,3.25,weatherlink.com 1.10,2013-05-20 17:06:00,
2013-05-20 13:21:00,70.2,70.0,30.14,NNE,26,0.0,3.0,99,0.04,,,3.26,weatherlink.com 1.10,2013-05-20 17:21:00,
2013-05-20 13:36:00,70.0,70.0,30.13,ENE,62,0.0,0.0,99,0.04,,,3.27,weatherlink.com 1.10,2013-05-20 17:36:00,
2013-05-20 13:51:00,70.4,70.0,30.12,ESE,117,2.0,3.0,99,0.04,,,3.28,weatherlink.com 1.10,2013-05-20 17:51:00,
2013-05-20 14:06:00,70.8,71.0,30.12,ENE,57,3.0,4.0,99,0.08,,,3.33,weatherlink.com 1.10,2013-05-20 18:06:00,
2013-05-20 14:21:00,71.0,71.0,30.12,SE,140,2.0,3.0,99,0.11,,,3.37,weatherlink.com 1.10,2013-05-20 18:21:00,
2013-05-20 14:36:00,71.0,71.0,30.11,ESE,106,0.0,1.0,99,0.11,,,3.38,weatherlink.com 1.10,2013-05-20 18:36:00,
2013-05-20 14:52:00,71.8,72.0,30.11,ENE,72,0.0,0.0,99,0.10,,,3.38,weatherlink.com 1.10,2013-05-20 18:52:00,
2013-05-20 15:06:00,71.7,71.0,30.09,NE,41,0.0,0.0,99,0.05,,,3.39,weatherlink.com 1.10,2013-05-20 19:06:00,
2013-05-20 15:21:00,72.2,72.0,30.09,East,89,3.0,4.0,99,0.02,,,3.39,weatherlink.com 1.10,2013-05-20 19:21:00,
2013-05-20 15:36:00,72.5,72.0,30.09,East,93,5.0,7.0,99,0.01,,,3.39,weatherlink.com 1.10,2013-05-20 19:36:00,
2013-05-20 16:06:00,73.4,73.0,30.09,East,79,2.0,5.0,98,0.00,,,3.39,weatherlink.com 1.10,2013-05-20 20:06:00,
2013-05-20 16:22:00,74.4,73.0,30.08,NE,46,0.0,0.0,94,0.00,,,3.39,weatherlink.com 1.10,2013-05-20 20:22:00,
2013-05-20 16:37:00,75.0,72.0,30.08,NE,37,0.0,4.0,91,0.00,,,3.39,weatherlink.com 1.10,2013-05-20 20:37:00,
2013-05-20 16:52:00,75.5,73.0,30.08,NNW,345,0.0,0.0,90,0.00,,,3.39,weatherlink.com 1.10,2013-05-20 20:52:00,
2013-05-20 17:07:00,76.0,73.0,30.08,NE,41,0.0,1.0,89,0.00,,,3.39,weatherlink.com 1.10,2013-05-20 21:07:00,
2013-05-20 17:22:00,75.7,73.0,30.07,NE,47,3.0,5.0,91,0.01,,,3.40,weatherlink.com 1.10,2013-05-20 21:22:00,
2013-05-20 17:37:00,75.6,73.0,30.06,NE,51,1.0,3.0,91,0.01,,,3.40,weatherlink.com 1.10,2013-05-20 21:37:00,
2013-05-20 17:52:00,75.9,73.0,30.06,ENE,76,0.0,2.0,91,0.01,,,3.40,weatherlink.com 1.10,2013-05-20 21:52:00,
2013-05-20 18:07:00,76.2,74.0,30.05,SE,130,1.0,4.0,91,0.01,,,3.40,weatherlink.com 1.10,2013-05-20 22:07:00,
2013-05-20 18:22:00,76.2,74.0,30.05,SE,127,1.0,5.0,91,0.00,,,3.40,weatherlink.com 1.10,2013-05-20 22:22:00,
2013-05-20 18:37:00,76.0,73.0,30.05,SE,129,2.0,4.0,90,0.00,,,3.40,weatherlink.com 1.10,2013-05-20 22:37:00,
2013-05-20 18:52:00,76.1,73.0,30.05,ESE,115,1.0,4.0,91,0.00,,,3.40,weatherlink.com 1.10,2013-05-20 22:52:00,
2013-05-20 19:07:00,76.1,73.0,30.04,ESE,105,2.0,5.0,91,0.00,,,3.40,weatherlink.com 1.10,2013-05-20 23:07:00,
2013-05-20 19:22:00,76.1,73.0,30.04,East,86,3.0,4.0,91,0.00,,,3.40,weatherlink.com 1.10,2013-05-20 23:22:00,
2013-05-20 19:37:00,76.0,74.0,30.07,North,5,0.0,2.0,92,0.00,,,3.40,weatherlink.com 1.10,2013-05-20 23:37:00,
2013-05-20 19:52:00,75.8,74.0,30.08,NNW,333,0.0,0.0,93,0.00,,,3.40,weatherlink.com 1.10,2013-05-20 23:52:00,
2013-05-20 20:07:00,75.6,74.0,30.09,North,354,0.0,1.0,94,0.00,,,3.40,weatherlink.com 1.10,2013-05-21 00:07:00,
2013-05-20 20:22:00,74.9,73.0,30.09,West,280,0.0,3.0,93,0.16,,,3.56,weatherlink.com 1.10,2013-05-21 00:22:00,
2013-05-20 20:37:00,74.8,73.0,30.09,NE,55,0.0,1.0,94,0.18,,,3.58,weatherlink.com 1.10,2013-05-21 00:37:00,
2013-05-20 20:52:00,74.5,72.0,30.08,NE,43,0.0,4.0,93,0.18,,,3.58,weatherlink.com 1.10,2013-05-21 00:52:00,
2013-05-20 21:07:00,74.0,72.0,30.08,NNE,30,0.0,1.0,94,0.17,,,3.58,weatherlink.com 1.10,2013-05-21 01:07:00,
2013-05-20 21:22:00,73.8,72.0,30.09,NNE,30,0.0,0.0,95,0.02,,,3.58,weatherlink.com 1.10,2013-05-21 01:22:00,
2013-05-20 21:37:00,74.0,73.0,30.09,ENE,62,5.0,11.0,95,0.00,,,3.58,weatherlink.com 1.10,2013-05-21 01:37:00,
2013-05-20 21:52:00,72.1,71.0,30.10,NE,56,11.0,16.0,96,0.07,,,3.65,weatherlink.com 1.10,2013-05-21 01:52:00,
2013-05-20 22:07:00,71.0,70.0,30.11,ENE,64,11.0,17.0,97,0.15,,,3.73,weatherlink.com 1.10,2013-05-21 02:07:00,
2013-05-20 22:22:00,69.0,68.0,30.12,East,84,13.0,18.0,97,0.51,,,4.09,weatherlink.com 1.10,2013-05-21 02:22:00,
2013-05-20 22:37:00,68.5,68.0,30.12,ESE,121,3.0,9.0,98,0.76,,,4.34,weatherlink.com 1.10,2013-05-21 02:37:00,
2013-05-20 22:52:00,68.5,68.0,30.12,SE,129,4.0,7.0,99,0.80,,,4.46,weatherlink.com 1.10,2013-05-21 02:52:00,
2013-05-20 23:07:00,68.6,68.0,30.11,WSW,257,5.0,9.0,99,0.81,,,4.55,weatherlink.com 1.10,2013-05-21 03:07:00,
2013-05-20 23:22:00,68.9,69.0,30.12,South,169,2.0,4.0,99,0.51,,,4.62,weatherlink.com 1.10,2013-05-21 03:22:00,
2013-05-20 23:37:00,68.9,69.0,30.11,ESE,114,7.0,9.0,99,0.36,,,4.71,weatherlink.com 1.10,2013-05-21 03:37:00,
2013-05-20 23:52:00,69.3,69.0,30.12,ESE,115,7.0,10.0,99,0.33,,,4.80,weatherlink.com 1.10,2013-05-21 03:52:00,